METAR AND TAF INFORMATION
METAR FOR OMDB
OMDB 230400Z 13008KT 090V150 6000 NSC 35/28 Q0997 NOSIG
OMDB 230300Z 12009KT 5000 HZ NSC 34/29 Q0996 TEMPO 4000
OMDB 230200Z 19004KT 150V220 5000 HZ NSC 34/29 Q0996 TEMPO 4000

TAF OMDB 230500Z 2306/2412 20005KT 6000 NSC
BECMG 2306/2308 32013KT
PROB30
TEMPO 2307/2316 4000 HZ
BECMG 2318/2320 20007KT
PROB30 2400/2405 4000 HZ BKN005
BECMG 2406/2408 28013KT

 AIRPORT MAP

 RUNWAY INFORMATION
Runway 12L Runway length 13124 ft Runway width 197 ft
Runway elevation 13 ft Runway displaced threshold 1312 ft Runway heading 122
Runway 30R Runway length 13124 ft Runway width 197 ft
Runway elevation 34 ft Runway displaced threshold 0 ft Runway heading 302
Runway 12R Runway length 13124 ft Runway width 151 ft
Runway elevation 13 ft Runway displaced threshold 394 ft Runway heading 121
Runway 30L Runway length 13124 ft Runway width 151 ft
Runway elevation 34 ft Runway displaced threshold 2953 ft Runway heading 301

 AIRPORT FREQUENCIES
Type ARR Name ARR Frequency 124.9 MHZ
Type ATIS Name ATIS Frequency 131.7 MHZ
Type DEP Name DEP Frequency 124.45 MHZ
Type GND Name GND Frequency 118.35 MHZ
Type TWR Name TWR Frequency 118.75 MHZ

 AIRPORT NEAR NAVIGATION AIDS
Type VOR-DME Name Dubai Frequency 115700 KHZ

-